sensor_id;sensor_type;location;lat;lon;timestamp;temperature;humidity
28761;DHT22;15917;50.014;8.352;2022-12-04T00:01:47;3.40;99.90
28761;DHT22;15917;50.014;8.352;2022-12-04T00:04:13;3.50;99.90
28761;DHT22;15917;50.014;8.352;2022-12-04T00:06:39;3.50;99.90
28761;DHT22;15917;50.014;8.352;2022-12-04T00:09:04;3.50;99.90
28761;DHT22;15917;50.014;8.352;2022-12-04T00:11:31;3.50;99.90
28761;DHT22;15917;50.014;8.352;2022-12-04T00:13:58;3.50;99.90
28761;DHT22;15917;50.014;8.352;2022-12-04T00:16:26;3.50;99.90
28761;DHT22;15917;50.014;8.352;2022-12-04T00:18:54;3.50;99.90
28761;DHT22;15917;50.014;8.352;2022-12-04T00:21:22;3.40;99.90
28761;DHT22;15917;50.014;8.352;2022-12-04T00:23:48;3.40;99.90
28761;DHT22;15917;50.014;8.352;2022-12-04T00:26:20;3.40;99.90
28761;DHT22;15917;50.014;8.352;2022-12-04T00:28:47;3.40;99.90
28761;DHT22;15917;50.014;8.352;2022-12-04T00:31:18;3.40;99.90
28761;DHT22;15917;50.014;8.352;2022-12-04T00:33:44;3.40;99.90
28761;DHT22;15917;50.014;8.352;2022-12-04T00:36:12;3.40;99.90
28761;DHT22;15917;50.014;8.352;2022-12-04T00:38:39;3.40;99.90
28761;DHT22;15917;50.014;8.352;2022-12-04T00:41:08;3.40;99.90
28761;DHT22;15917;50.014;8.352;2022-12-04T00:43:34;3.40;99.90
28761;DHT22;15917;50.014;8.352;2022-12-04T00:46:00;3.40;99.90
28761;DHT22;15917;50.014;8.352;2022-12-04T00:48:26;3.40;99.90
28761;DHT22;15917;50.014;8.352;2022-12-04T00:50:52;3.40;99.90
28761;DHT22;15917;50.014;8.352;2022-12-04T00:53:19;3.40;99.90
28761;DHT22;15917;50.014;8.352;2022-12-04T00:55:44;3.30;99.90
28761;DHT22;15917;50.014;8.352;2022-12-04T00:58:10;3.40;99.90
28761;DHT22;15917;50.014;8.352;2022-12-04T01:00:40;3.30;99.90
28761;DHT22;15917;50.014;8.352;2022-12-04T01:03:07;3.30;99.90
28761;DHT22;15917;50.014;8.352;2022-12-04T01:05:41;3.40;99.90
28761;DHT22;15917;50.014;8.352;2022-12-04T01:08:08;3.40;99.90
28761;DHT22;15917;50.014;8.352;2022-12-04T01:10:37;3.40;99.90
28761;DHT22;15917;50.014;8.352;2022-12-04T01:13:03;3.30;99.90
28761;DHT22;15917;50.014;8.352;2022-12-04T01:15:28;3.30;99.90
28761;DHT22;15917;50.014;8.352;2022-12-04T01:17:54;3.30;99.90
28761;DHT22;15917;50.014;8.352;2022-12-04T01:20:20;3.30;99.90
28761;DHT22;15917;50.014;8.352;2022-12-04T01:22:45;3.40;99.90
28761;DHT22;15917;50.014;8.352;2022-12-04T01:25:11;3.30;99.90
28761;DHT22;15917;50.014;8.352;2022-12-04T01:27:36;3.30;99.90
28761;DHT22;15917;50.014;8.352;2022-12-04T01:30:03;3.30;99.90
28761;DHT22;15917;50.014;8.352;2022-12-04T01:32:28;3.30;99.90
28761;DHT22;15917;50.014;8.352;2022-12-04T01:34:54;3.30;99.90
28761;DHT22;15917;50.014;8.352;2022-12-04T01:37:19;3.30;99.90
28761;DHT22;15917;50.014;8.352;2022-12-04T01:39:45;3.30;99.90
28761;DHT22;15917;50.014;8.352;2022-12-04T01:42:12;3.30;99.90
28761;DHT22;15917;50.014;8.352;2022-12-04T01:44:43;3.30;99.90
28761;DHT22;15917;50.014;8.352;2022-12-04T01:47:10;3.30;99.90
28761;DHT22;15917;50.014;8.352;2022-12-04T01:49:39;3.30;99.90
28761;DHT22;15917;50.014;8.352;2022-12-04T01:52:13;3.30;99.90
28761;DHT22;15917;50.014;8.352;2022-12-04T01:54:42;3.30;99.90
28761;DHT22;15917;50.014;8.352;2022-12-04T01:57:15;3.30;99.90
28761;DHT22;15917;50.014;8.352;2022-12-04T01:59:48;3.30;99.90
28761;DHT22;15917;50.014;8.352;2022-12-04T02:02:17;3.30;99.90
28761;DHT22;15917;50.014;8.352;2022-12-04T02:04:45;3.30;99.90
28761;DHT22;15917;50.014;8.352;2022-12-04T02:07:11;3.30;99.90
28761;DHT22;15917;50.014;8.352;2022-12-04T02:09:38;3.30;99.90
28761;DHT22;15917;50.014;8.352;2022-12-04T02:28:27;3.30;99.90
28761;DHT22;15917;50.014;8.352;2022-12-04T02:30:59;3.30;99.90
28761;DHT22;15917;50.014;8.352;2022-12-04T02:33:42;3.30;99.90
28761;DHT22;15917;50.014;8.352;2022-12-04T02:36:18;3.30;99.90
28761;DHT22;15917;50.014;8.352;2022-12-04T02:39:08;3.30;99.90
28761;DHT22;15917;50.014;8.352;2022-12-04T02:41:42;3.30;99.90
28761;DHT22;15917;50.014;8.352;2022-12-04T02:44:46;3.30;99.90
28761;DHT22;15917;50.014;8.352;2022-12-04T02:47:13;3.30;99.90
28761;DHT22;15917;50.014;8.352;2022-12-04T02:49:46;3.30;99.90
28761;DHT22;15917;50.014;8.352;2022-12-04T02:52:17;3.30;99.90
28761;DHT22;15917;50.014;8.352;2022-12-04T02:54:49;3.30;99.90
28761;DHT22;15917;50.014;8.352;2022-12-04T02:57:22;3.30;99.90
28761;DHT22;15917;50.014;8.352;2022-12-04T02:59:50;3.30;99.90
28761;DHT22;15917;50.014;8.352;2022-12-04T03:02:23;3.30;99.90
28761;DHT22;15917;50.014;8.352;2022-12-04T03:04:50;3.30;99.90
28761;DHT22;15917;50.014;8.352;2022-12-04T03:07:24;3.30;99.90
28761;DHT22;15917;50.014;8.352;2022-12-04T03:09:58;3.20;99.90
28761;DHT22;15917;50.014;8.352;2022-12-04T03:12:45;3.20;99.90
28761;DHT22;15917;50.014;8.352;2022-12-04T03:15:44;3.20;99.90
28761;DHT22;15917;50.014;8.352;2022-12-04T03:18:19;3.20;99.90
28761;DHT22;15917;50.014;8.352;2022-12-04T03:20:49;3.20;99.90
28761;DHT22;15917;50.014;8.352;2022-12-04T03:23:22;3.20;99.90
28761;DHT22;15917;50.014;8.352;2022-12-04T03:28:58;3.20;99.90
28761;DHT22;15917;50.014;8.352;2022-12-04T03:31:48;3.20;99.90
28761;DHT22;15917;50.014;8.352;2022-12-04T03:34:28;3.30;99.90
28761;DHT22;15917;50.014;8.352;2022-12-04T03:36:59;3.30;99.90
28761;DHT22;15917;50.014;8.352;2022-12-04T03:39:33;3.30;99.90
28761;DHT22;15917;50.014;8.352;2022-12-04T03:42:22;3.30;99.90
28761;DHT22;15917;50.014;8.352;2022-12-04T03:45:09;3.30;99.90
28761;DHT22;15917;50.014;8.352;2022-12-04T03:47:48;3.30;99.90
28761;DHT22;15917;50.014;8.352;2022-12-04T03:51:06;3.30;99.90
28761;DHT22;15917;50.014;8.352;2022-12-04T03:53:19;3.30;99.90
28761;DHT22;15917;50.014;8.352;2022-12-04T03:55:55;3.30;99.90
28761;DHT22;15917;50.014;8.352;2022-12-04T03:58:28;3.30;99.90
28761;DHT22;15917;50.014;8.352;2022-12-04T04:00:56;3.30;99.90
28761;DHT22;15917;50.014;8.352;2022-12-04T04:03:28;3.30;99.90
28761;DHT22;15917;50.014;8.352;2022-12-04T04:06:13;3.30;99.90
28761;DHT22;15917;50.014;8.352;2022-12-04T04:08:42;3.30;99.90
28761;DHT22;15917;50.014;8.352;2022-12-04T04:11:30;3.30;99.90
28761;DHT22;15917;50.014;8.352;2022-12-04T04:14:01;3.30;99.90
28761;DHT22;15917;50.014;8.352;2022-12-04T04:16:56;3.30;99.90
28761;DHT22;15917;50.014;8.352;2022-12-04T04:19:44;3.30;99.90
28761;DHT22;15917;50.014;8.352;2022-12-04T04:22:30;3.30;99.90
28761;DHT22;15917;50.014;8.352;2022-12-04T04:25:19;3.30;99.90
28761;DHT22;15917;50.014;8.352;2022-12-04T04:27:56;3.30;99.90
28761;DHT22;15917;50.014;8.352;2022-12-04T04:30:22;3.30;99.90
28761;DHT22;15917;50.014;8.352;2022-12-04T04:33:04;3.30;99.90
28761;DHT22;15917;50.014;8.352;2022-12-04T04:35:44;3.20;99.90
28761;DHT22;15917;50.014;8.352;2022-12-04T04:38:23;3.30;99.90
28761;DHT22;15917;50.014;8.352;2022-12-04T04:41:00;3.30;99.90
28761;DHT22;15917;50.014;8.352;2022-12-04T04:43:36;3.30;99.90
28761;DHT22;15917;50.014;8.352;2022-12-04T04:46:10;3.30;99.90
28761;DHT22;15917;50.014;8.352;2022-12-04T04:48:45;3.30;99.90
28761;DHT22;15917;50.014;8.352;2022-12-04T04:51:12;3.30;99.90
28761;DHT22;15917;50.014;8.352;2022-12-04T04:53:45;3.20;99.90
28761;DHT22;15917;50.014;8.352;2022-12-04T04:56:12;3.20;99.90
28761;DHT22;15917;50.014;8.352;2022-12-04T04:58:38;3.10;99.90
28761;DHT22;15917;50.014;8.352;2022-12-04T05:01:07;3.10;99.90
28761;DHT22;15917;50.014;8.352;2022-12-04T05:03:33;3.20;99.90
28761;DHT22;15917;50.014;8.352;2022-12-04T05:05:59;3.20;99.90
28761;DHT22;15917;50.014;8.352;2022-12-04T05:08:25;3.20;99.90
28761;DHT22;15917;50.014;8.352;2022-12-04T05:10:51;3.20;99.90
28761;DHT22;15917;50.014;8.352;2022-12-04T05:13:17;3.20;99.90
28761;DHT22;15917;50.014;8.352;2022-12-04T05:15:43;3.20;99.90
28761;DHT22;15917;50.014;8.352;2022-12-04T05:18:10;3.20;99.90
28761;DHT22;15917;50.014;8.352;2022-12-04T05:20:39;3.20;99.90
28761;DHT22;15917;50.014;8.352;2022-12-04T05:23:05;3.20;99.90
28761;DHT22;15917;50.014;8.352;2022-12-04T05:25:31;3.20;99.90
28761;DHT22;15917;50.014;8.352;2022-12-04T05:27:57;3.10;99.90
28761;DHT22;15917;50.014;8.352;2022-12-04T05:30:23;3.10;99.90
28761;DHT22;15917;50.014;8.352;2022-12-04T05:32:49;3.20;99.90
28761;DHT22;15917;50.014;8.352;2022-12-04T05:35:14;3.20;99.90
28761;DHT22;15917;50.014;8.352;2022-12-04T05:37:40;3.20;99.90
28761;DHT22;15917;50.014;8.352;2022-12-04T05:40:06;3.10;99.90
28761;DHT22;15917;50.014;8.352;2022-12-04T05:42:32;3.20;99.90
28761;DHT22;15917;50.014;8.352;2022-12-04T05:44:58;3.20;99.90
28761;DHT22;15917;50.014;8.352;2022-12-04T05:47:23;3.20;99.90
28761;DHT22;15917;50.014;8.352;2022-12-04T05:49:49;3.20;99.90
28761;DHT22;15917;50.014;8.352;2022-12-04T05:52:15;3.20;99.90
28761;DHT22;15917;50.014;8.352;2022-12-04T05:54:40;3.20;99.90
28761;DHT22;15917;50.014;8.352;2022-12-04T05:57:06;3.20;99.90
28761;DHT22;15917;50.014;8.352;2022-12-04T05:59:32;3.10;99.90
28761;DHT22;15917;50.014;8.352;2022-12-04T06:01:57;3.20;99.90
28761;DHT22;15917;50.014;8.352;2022-12-04T06:04:23;3.20;99.90
28761;DHT22;15917;50.014;8.352;2022-12-04T06:06:49;3.20;99.90
28761;DHT22;15917;50.014;8.352;2022-12-04T06:09:14;3.20;99.90
28761;DHT22;15917;50.014;8.352;2022-12-04T06:11:41;3.20;99.90
28761;DHT22;15917;50.014;8.352;2022-12-04T06:14:09;3.10;99.90
28761;DHT22;15917;50.014;8.352;2022-12-04T06:16:38;3.10;99.90
28761;DHT22;15917;50.014;8.352;2022-12-04T06:19:11;3.10;99.90
28761;DHT22;15917;50.014;8.352;2022-12-04T06:21:40;3.20;99.90
28761;DHT22;15917;50.014;8.352;2022-12-04T06:24:07;3.20;99.90
28761;DHT22;15917;50.014;8.352;2022-12-04T06:26:33;3.20;99.90
28761;DHT22;15917;50.014;8.352;2022-12-04T06:28:58;3.20;99.90
28761;DHT22;15917;50.014;8.352;2022-12-04T06:31:26;3.20;99.90
28761;DHT22;15917;50.014;8.352;2022-12-04T06:33:52;3.20;99.90
28761;DHT22;15917;50.014;8.352;2022-12-04T06:36:18;3.20;99.90
28761;DHT22;15917;50.014;8.352;2022-12-04T06:38:46;3.20;99.90
28761;DHT22;15917;50.014;8.352;2022-12-04T06:41:16;3.20;99.90
28761;DHT22;15917;50.014;8.352;2022-12-04T06:43:42;3.20;99.90
28761;DHT22;15917;50.014;8.352;2022-12-04T06:46:17;3.20;99.90
28761;DHT22;15917;50.014;8.352;2022-12-04T06:48:44;3.10;99.90
28761;DHT22;15917;50.014;8.352;2022-12-04T06:51:12;3.10;99.90
28761;DHT22;15917;50.014;8.352;2022-12-04T06:53:38;3.10;99.90
28761;DHT22;15917;50.014;8.352;2022-12-04T06:56:07;3.10;99.90
28761;DHT22;15917;50.014;8.352;2022-12-04T06:58:34;3.10;99.90
28761;DHT22;15917;50.014;8.352;2022-12-04T07:01:08;3.10;99.90
28761;DHT22;15917;50.014;8.352;2022-12-04T07:03:34;3.20;99.90
28761;DHT22;15917;50.014;8.352;2022-12-04T07:06:14;3.10;99.90
28761;DHT22;15917;50.014;8.352;2022-12-04T07:08:41;3.10;99.90
28761;DHT22;15917;50.014;8.352;2022-12-04T07:11:07;3.10;99.90
28761;DHT22;15917;50.014;8.352;2022-12-04T07:13:33;3.20;99.90
28761;DHT22;15917;50.014;8.352;2022-12-04T07:16:00;3.20;99.90
28761;DHT22;15917;50.014;8.352;2022-12-04T07:18:27;3.20;99.90
28761;DHT22;15917;50.014;8.352;2022-12-04T07:20:53;3.20;99.90
28761;DHT22;15917;50.014;8.352;2022-12-04T07:23:19;3.20;99.90
28761;DHT22;15917;50.014;8.352;2022-12-04T07:25:44;3.20;99.90
28761;DHT22;15917;50.014;8.352;2022-12-04T07:28:10;3.20;99.90
28761;DHT22;15917;50.014;8.352;2022-12-04T07:30:36;3.20;99.90
28761;DHT22;15917;50.014;8.352;2022-12-04T07:33:02;3.20;99.90
28761;DHT22;15917;50.014;8.352;2022-12-04T07:35:28;3.20;99.90
28761;DHT22;15917;50.014;8.352;2022-12-04T07:37:54;3.20;99.90
28761;DHT22;15917;50.014;8.352;2022-12-04T07:40:19;3.20;99.90
28761;DHT22;15917;50.014;8.352;2022-12-04T07:42:45;3.20;99.90
28761;DHT22;15917;50.014;8.352;2022-12-04T07:45:10;3.20;99.90
28761;DHT22;15917;50.014;8.352;2022-12-04T07:47:36;3.20;99.90
28761;DHT22;15917;50.014;8.352;2022-12-04T07:50:04;3.20;99.90
28761;DHT22;15917;50.014;8.352;2022-12-04T07:52:30;3.20;99.90
28761;DHT22;15917;50.014;8.352;2022-12-04T07:54:56;3.20;99.90
28761;DHT22;15917;50.014;8.352;2022-12-04T07:57:22;3.20;99.90
28761;DHT22;15917;50.014;8.352;2022-12-04T07:59:48;3.30;99.90
28761;DHT22;15917;50.014;8.352;2022-12-04T08:02:13;3.30;99.90
28761;DHT22;15917;50.014;8.352;2022-12-04T08:04:39;4.90;99.90
28761;DHT22;15917;50.014;8.352;2022-12-04T08:07:04;6.00;99.90
28761;DHT22;15917;50.014;8.352;2022-12-04T08:09:30;5.60;99.90
28761;DHT22;15917;50.014;8.352;2022-12-04T08:11:56;5.10;99.90
28761;DHT22;15917;50.014;8.352;2022-12-04T08:14:22;4.70;99.90
28761;DHT22;15917;50.014;8.352;2022-12-04T08:16:48;4.40;99.90
28761;DHT22;15917;50.014;8.352;2022-12-04T08:19:14;4.20;99.90
28761;DHT22;15917;50.014;8.352;2022-12-04T08:21:40;4.00;99.90
28761;DHT22;15917;50.014;8.352;2022-12-04T08:24:05;3.80;99.90
28761;DHT22;15917;50.014;8.352;2022-12-04T08:26:32;3.80;99.90
28761;DHT22;15917;50.014;8.352;2022-12-04T08:28:59;3.70;99.90
28761;DHT22;15917;50.014;8.352;2022-12-04T08:31:28;3.60;99.90
28761;DHT22;15917;50.014;8.352;2022-12-04T08:33:54;3.60;99.90
28761;DHT22;15917;50.014;8.352;2022-12-04T08:36:22;3.60;99.90
28761;DHT22;15917;50.014;8.352;2022-12-04T08:38:48;3.60;99.90
28761;DHT22;15917;50.014;8.352;2022-12-04T08:41:17;3.60;99.90
28761;DHT22;15917;50.014;8.352;2022-12-04T08:43:43;3.50;99.90
28761;DHT22;15917;50.014;8.352;2022-12-04T08:46:11;3.50;99.90
28761;DHT22;15917;50.014;8.352;2022-12-04T08:48:38;3.50;99.90
28761;DHT22;15917;50.014;8.352;2022-12-04T08:51:04;3.40;99.90
28761;DHT22;15917;50.014;8.352;2022-12-04T08:53:33;3.40;99.90
28761;DHT22;15917;50.014;8.352;2022-12-04T08:56:00;3.40;99.90
28761;DHT22;15917;50.014;8.352;2022-12-04T08:58:26;3.40;99.90
28761;DHT22;15917;50.014;8.352;2022-12-04T09:00:52;3.70;99.90
28761;DHT22;15917;50.014;8.352;2022-12-04T09:03:19;3.80;99.90
28761;DHT22;15917;50.014;8.352;2022-12-04T09:05:45;3.80;99.90
28761;DHT22;15917;50.014;8.352;2022-12-04T09:08:15;3.80;99.90
28761;DHT22;15917;50.014;8.352;2022-12-04T09:10:42;3.70;99.90
28761;DHT22;15917;50.014;8.352;2022-12-04T09:13:08;4.70;99.90
28761;DHT22;15917;50.014;8.352;2022-12-04T09:15:36;5.90;99.90
28761;DHT22;15917;50.014;8.352;2022-12-04T09:18:02;6.10;99.90
28761;DHT22;15917;50.014;8.352;2022-12-04T09:20:28;5.60;99.90
28761;DHT22;15917;50.014;8.352;2022-12-04T09:22:53;5.20;99.90
28761;DHT22;15917;50.014;8.352;2022-12-04T09:25:19;4.80;99.90
28761;DHT22;15917;50.014;8.352;2022-12-04T09:27:45;4.50;99.90
28761;DHT22;15917;50.014;8.352;2022-12-04T09:30:11;4.30;99.90
28761;DHT22;15917;50.014;8.352;2022-12-04T09:32:37;4.10;99.90
28761;DHT22;15917;50.014;8.352;2022-12-04T09:35:04;4.10;99.90
28761;DHT22;15917;50.014;8.352;2022-12-04T09:37:32;4.00;99.90
28761;DHT22;15917;50.014;8.352;2022-12-04T09:39:57;4.00;99.90
28761;DHT22;15917;50.014;8.352;2022-12-04T09:42:52;4.00;99.90
28761;DHT22;15917;50.014;8.352;2022-12-04T09:45:23;4.00;99.90
28761;DHT22;15917;50.014;8.352;2022-12-04T09:47:53;4.10;99.90
28761;DHT22;15917;50.014;8.352;2022-12-04T09:50:40;4.00;99.90
28761;DHT22;15917;50.014;8.352;2022-12-04T09:53:21;4.00;99.90
28761;DHT22;15917;50.014;8.352;2022-12-04T09:58:35;3.80;99.90
28761;DHT22;15917;50.014;8.352;2022-12-04T10:01:04;3.80;99.90
28761;DHT22;15917;50.014;8.352;2022-12-04T10:03:30;3.80;99.90
28761;DHT22;15917;50.014;8.352;2022-12-04T10:06:11;3.80;99.90
28761;DHT22;15917;50.014;8.352;2022-12-04T10:08:50;3.80;99.90
28761;DHT22;15917;50.014;8.352;2022-12-04T10:25:48;3.90;99.90
28761;DHT22;15917;50.014;8.352;2022-12-04T10:28:30;3.90;99.90
28761;DHT22;15917;50.014;8.352;2022-12-04T10:31:00;3.90;99.90
28761;DHT22;15917;50.014;8.352;2022-12-04T10:33:51;3.90;99.90
28761;DHT22;15917;50.014;8.352;2022-12-04T10:36:20;3.90;99.90
28761;DHT22;15917;50.014;8.352;2022-12-04T10:44:19;4.00;99.90
28761;DHT22;15917;50.014;8.352;2022-12-04T10:46:45;4.00;99.90
28761;DHT22;15917;50.014;8.352;2022-12-04T10:51:42;3.90;99.90
28761;DHT22;15917;50.014;8.352;2022-12-04T10:54:29;3.80;99.90
28761;DHT22;15917;50.014;8.352;2022-12-04T10:57:02;3.80;99.90
28761;DHT22;15917;50.014;8.352;2022-12-04T10:59:28;3.70;99.90
28761;DHT22;15917;50.014;8.352;2022-12-04T11:02:19;3.70;99.90
28761;DHT22;15917;50.014;8.352;2022-12-04T11:04:58;3.80;99.90
28761;DHT22;15917;50.014;8.352;2022-12-04T11:07:45;3.80;99.90
28761;DHT22;15917;50.014;8.352;2022-12-04T11:15:28;3.90;99.90
28761;DHT22;15917;50.014;8.352;2022-12-04T11:17:54;4.00;99.90
28761;DHT22;15917;50.014;8.352;2022-12-04T11:20:23;3.90;99.90
28761;DHT22;15917;50.014;8.352;2022-12-04T11:22:57;4.20;99.90
28761;DHT22;15917;50.014;8.352;2022-12-04T11:25:29;4.20;99.90
28761;DHT22;15917;50.014;8.352;2022-12-04T11:28:00;4.20;99.90
28761;DHT22;15917;50.014;8.352;2022-12-04T11:30:35;4.20;99.90
28761;DHT22;15917;50.014;8.352;2022-12-04T11:33:03;4.20;99.90
28761;DHT22;15917;50.014;8.352;2022-12-04T11:35:30;4.30;99.90
28761;DHT22;15917;50.014;8.352;2022-12-04T11:38:05;4.30;99.90
28761;DHT22;15917;50.014;8.352;2022-12-04T11:40:33;4.30;99.90
28761;DHT22;15917;50.014;8.352;2022-12-04T11:43:14;4.30;99.90
28761;DHT22;15917;50.014;8.352;2022-12-04T11:45:40;4.30;99.90
28761;DHT22;15917;50.014;8.352;2022-12-04T11:48:15;4.30;99.90
28761;DHT22;15917;50.014;8.352;2022-12-04T11:53:57;4.20;99.90
28761;DHT22;15917;50.014;8.352;2022-12-04T11:56:34;4.30;99.90
28761;DHT22;15917;50.014;8.352;2022-12-04T12:05:19;4.40;99.90
28761;DHT22;15917;50.014;8.352;2022-12-04T12:16:05;4.30;99.90
28761;DHT22;15917;50.014;8.352;2022-12-04T12:21:03;4.30;99.90
28761;DHT22;15917;50.014;8.352;2022-12-04T12:23:49;4.30;99.90
28761;DHT22;15917;50.014;8.352;2022-12-04T12:26:17;4.40;99.90
28761;DHT22;15917;50.014;8.352;2022-12-04T12:36:43;4.50;99.90
28761;DHT22;15917;50.014;8.352;2022-12-04T12:39:32;4.50;99.90
28761;DHT22;15917;50.014;8.352;2022-12-04T12:42:03;4.50;99.90
28761;DHT22;15917;50.014;8.352;2022-12-04T12:44:47;4.50;99.90
28761;DHT22;15917;50.014;8.352;2022-12-04T12:47:21;4.50;99.90
28761;DHT22;15917;50.014;8.352;2022-12-04T12:52:30;4.60;99.90
28761;DHT22;15917;50.014;8.352;2022-12-04T12:55:08;4.60;99.90
28761;DHT22;15917;50.014;8.352;2022-12-04T12:57:41;4.60;99.90
28761;DHT22;15917;50.014;8.352;2022-12-04T13:00:19;4.50;99.90
28761;DHT22;15917;50.014;8.352;2022-12-04T13:02:54;4.50;99.90
28761;DHT22;15917;50.014;8.352;2022-12-04T13:05:29;4.50;99.90
28761;DHT22;15917;50.014;8.352;2022-12-04T13:08:18;4.50;99.90
28761;DHT22;15917;50.014;8.352;2022-12-04T13:11:06;4.50;99.90
28761;DHT22;15917;50.014;8.352;2022-12-04T13:16:32;4.50;99.90
28761;DHT22;15917;50.014;8.352;2022-12-04T13:30:20;4.50;99.90
28761;DHT22;15917;50.014;8.352;2022-12-04T13:33:47;4.60;99.90
28761;DHT22;15917;50.014;8.352;2022-12-04T13:41:04;4.60;99.90
28761;DHT22;15917;50.014;8.352;2022-12-04T13:46:00;4.50;99.90
28761;DHT22;15917;50.014;8.352;2022-12-04T13:48:39;4.50;99.90
28761;DHT22;15917;50.014;8.352;2022-12-04T13:53:39;4.50;99.90
28761;DHT22;15917;50.014;8.352;2022-12-04T13:56:07;4.50;99.90
28761;DHT22;15917;50.014;8.352;2022-12-04T13:59:01;4.50;99.90
28761;DHT22;15917;50.014;8.352;2022-12-04T14:01:34;4.50;99.90
28761;DHT22;15917;50.014;8.352;2022-12-04T14:04:01;4.40;99.90
28761;DHT22;15917;50.014;8.352;2022-12-04T14:06:37;4.40;99.90
28761;DHT22;15917;50.014;8.352;2022-12-04T14:09:26;4.40;99.90
28761;DHT22;15917;50.014;8.352;2022-12-04T14:11:58;4.50;99.90
28761;DHT22;15917;50.014;8.352;2022-12-04T14:14:28;4.50;99.90
28761;DHT22;15917;50.014;8.352;2022-12-04T14:16:56;4.50;99.90
28761;DHT22;15917;50.014;8.352;2022-12-04T14:19:32;4.50;99.90
28761;DHT22;15917;50.014;8.352;2022-12-04T14:21:59;4.50;99.90
28761;DHT22;15917;50.014;8.352;2022-12-04T14:24:31;4.50;99.90
28761;DHT22;15917;50.014;8.352;2022-12-04T14:26:57;5.50;99.90
28761;DHT22;15917;50.014;8.352;2022-12-04T14:29:33;6.80;99.90
28761;DHT22;15917;50.014;8.352;2022-12-04T14:32:06;7.90;99.90
28761;DHT22;15917;50.014;8.352;2022-12-04T14:34:34;7.80;99.90
28761;DHT22;15917;50.014;8.352;2022-12-04T14:37:00;7.20;99.90
28761;DHT22;15917;50.014;8.352;2022-12-04T14:39:44;6.60;99.90
28761;DHT22;15917;50.014;8.352;2022-12-04T14:42:14;6.00;99.90
28761;DHT22;15917;50.014;8.352;2022-12-04T14:44:45;5.60;99.90
28761;DHT22;15917;50.014;8.352;2022-12-04T14:47:55;5.40;99.90
28761;DHT22;15917;50.014;8.352;2022-12-04T14:50:49;5.20;99.90
28761;DHT22;15917;50.014;8.352;2022-12-04T14:53:37;5.00;99.90
28761;DHT22;15917;50.014;8.352;2022-12-04T14:58:41;4.70;99.90
28761;DHT22;15917;50.014;8.352;2022-12-04T15:03:44;4.70;99.90
28761;DHT22;15917;50.014;8.352;2022-12-04T15:06:20;4.70;99.90
28761;DHT22;15917;50.014;8.352;2022-12-04T15:08:57;4.70;99.90
28761;DHT22;15917;50.014;8.352;2022-12-04T15:11:51;4.80;99.90
28761;DHT22;15917;50.014;8.352;2022-12-04T15:17:05;4.60;99.90
28761;DHT22;15917;50.014;8.352;2022-12-04T15:19:31;4.70;99.90
28761;DHT22;15917;50.014;8.352;2022-12-04T15:21:56;4.60;99.90
28761;DHT22;15917;50.014;8.352;2022-12-04T15:24:23;4.60;99.90
28761;DHT22;15917;50.014;8.352;2022-12-04T15:26:51;4.60;99.90
28761;DHT22;15917;50.014;8.352;2022-12-04T15:29:26;4.60;99.90
28761;DHT22;15917;50.014;8.352;2022-12-04T15:31:55;4.60;99.90
28761;DHT22;15917;50.014;8.352;2022-12-04T15:34:53;4.60;99.90
28761;DHT22;15917;50.014;8.352;2022-12-04T15:37:28;4.60;99.90
28761;DHT22;15917;50.014;8.352;2022-12-04T15:39:57;4.50;99.90
28761;DHT22;15917;50.014;8.352;2022-12-04T15:47:52;4.50;99.90
28761;DHT22;15917;50.014;8.352;2022-12-04T15:53:11;4.60;99.90
28761;DHT22;15917;50.014;8.352;2022-12-04T15:55:48;4.60;99.90
28761;DHT22;15917;50.014;8.352;2022-12-04T15:58:34;4.60;99.90
28761;DHT22;15917;50.014;8.352;2022-12-04T16:01:07;4.60;99.90
28761;DHT22;15917;50.014;8.352;2022-12-04T16:03:48;4.60;99.90
28761;DHT22;15917;50.014;8.352;2022-12-04T16:06:27;4.60;99.90
28761;DHT22;15917;50.014;8.352;2022-12-04T16:11:42;4.60;99.90
28761;DHT22;15917;50.014;8.352;2022-12-04T16:16:35;4.50;99.90
28761;DHT22;15917;50.014;8.352;2022-12-04T16:19:07;4.50;99.90
28761;DHT22;15917;50.014;8.352;2022-12-04T16:21:33;4.50;99.90
28761;DHT22;15917;50.014;8.352;2022-12-04T16:24:04;4.50;99.90
28761;DHT22;15917;50.014;8.352;2022-12-04T16:26:30;4.50;99.90
28761;DHT22;15917;50.014;8.352;2022-12-04T16:28:56;4.50;99.90
28761;DHT22;15917;50.014;8.352;2022-12-04T16:31:22;4.50;99.90
28761;DHT22;15917;50.014;8.352;2022-12-04T16:33:48;4.50;99.90
28761;DHT22;15917;50.014;8.352;2022-12-04T16:36:14;4.50;99.90
28761;DHT22;15917;50.014;8.352;2022-12-04T16:38:39;4.50;99.90
28761;DHT22;15917;50.014;8.352;2022-12-04T16:41:06;4.40;99.90
28761;DHT22;15917;50.014;8.352;2022-12-04T16:43:38;4.40;99.90
28761;DHT22;15917;50.014;8.352;2022-12-04T16:46:03;4.40;99.90
28761;DHT22;15917;50.014;8.352;2022-12-04T16:48:29;4.40;99.90
28761;DHT22;15917;50.014;8.352;2022-12-04T16:50:59;4.30;99.90
28761;DHT22;15917;50.014;8.352;2022-12-04T16:53:24;4.30;99.90
28761;DHT22;15917;50.014;8.352;2022-12-04T16:55:51;4.40;99.90
28761;DHT22;15917;50.014;8.352;2022-12-04T16:58:18;4.40;99.90
28761;DHT22;15917;50.014;8.352;2022-12-04T17:00:50;4.40;99.90
28761;DHT22;15917;50.014;8.352;2022-12-04T17:03:27;4.30;99.90
28761;DHT22;15917;50.014;8.352;2022-12-04T17:05:54;4.30;99.90
28761;DHT22;15917;50.014;8.352;2022-12-04T17:08:20;4.30;99.90
28761;DHT22;15917;50.014;8.352;2022-12-04T17:10:46;4.30;99.90
28761;DHT22;15917;50.014;8.352;2022-12-04T17:13:12;4.30;99.90
28761;DHT22;15917;50.014;8.352;2022-12-04T17:15:37;4.30;99.90
28761;DHT22;15917;50.014;8.352;2022-12-04T17:18:03;4.30;99.90
28761;DHT22;15917;50.014;8.352;2022-12-04T17:20:29;4.40;99.90
28761;DHT22;15917;50.014;8.352;2022-12-04T17:22:56;4.30;99.90
28761;DHT22;15917;50.014;8.352;2022-12-04T17:25:22;4.30;99.90
28761;DHT22;15917;50.014;8.352;2022-12-04T17:27:48;4.30;99.90
28761;DHT22;15917;50.014;8.352;2022-12-04T17:30:14;4.40;99.90
28761;DHT22;15917;50.014;8.352;2022-12-04T17:32:40;4.50;99.90
28761;DHT22;15917;50.014;8.352;2022-12-04T17:35:07;4.50;99.90
28761;DHT22;15917;50.014;8.352;2022-12-04T17:37:34;4.60;99.90
28761;DHT22;15917;50.014;8.352;2022-12-04T17:40:00;4.60;99.90
28761;DHT22;15917;50.014;8.352;2022-12-04T17:42:26;4.50;99.90
28761;DHT22;15917;50.014;8.352;2022-12-04T17:44:52;5.80;99.90
28761;DHT22;15917;50.014;8.352;2022-12-04T17:47:17;6.30;99.90
28761;DHT22;15917;50.014;8.352;2022-12-04T17:49:43;6.20;99.90
28761;DHT22;15917;50.014;8.352;2022-12-04T17:52:09;5.80;99.90
28761;DHT22;15917;50.014;8.352;2022-12-04T17:54:35;5.40;99.90
28761;DHT22;15917;50.014;8.352;2022-12-04T17:57:01;5.00;99.90
28761;DHT22;15917;50.014;8.352;2022-12-04T17:59:27;4.80;99.90
28761;DHT22;15917;50.014;8.352;2022-12-04T18:01:53;4.60;99.90
28761;DHT22;15917;50.014;8.352;2022-12-04T18:04:19;4.60;99.90
28761;DHT22;15917;50.014;8.352;2022-12-04T18:06:45;4.50;99.90
28761;DHT22;15917;50.014;8.352;2022-12-04T18:09:13;4.40;99.90
28761;DHT22;15917;50.014;8.352;2022-12-04T18:11:41;4.30;99.90
28761;DHT22;15917;50.014;8.352;2022-12-04T18:14:11;4.30;99.90